Time;durP1;ratioP1;P1;durP2;ratioP2;P2;SDS_P1;SDS_P2;PMS_P1;PMS_P2;Temp;Humidity;BMP_temperature;BMP_pressure;BME280_temperature;BME280_humidity;BME280_pressure;Samples;Min_cycle;Max_cycle;Signal;HPM_P1;HPM_P2
2023/03/18 00:01:54;;;;;;;14.13;7.88;;;6.60;94.30;;;;;;5090424;28;20038;-72
2023/03/18 00:04:20;;;;;;;14.73;7.40;;;6.60;94.10;;;;;;5097117;28;20028;-72
2023/03/18 00:06:46;;;;;;;12.02;7.57;;;6.70;93.90;;;;;;5088803;28;20054;-72
2023/03/18 00:09:12;;;;;;;12.85;7.28;;;6.60;94.20;;;;;;5088938;28;20132;-72
2023/03/18 00:11:39;;;;;;;13.13;7.28;;;6.50;94.30;;;;;;5094838;28;20032;-72
2023/03/18 00:14:07;;;;;;;11.27;6.82;;;6.40;94.50;;;;;;5092480;28;20031;-72
2023/03/18 00:16:34;;;;;;;14.50;7.53;;;6.40;94.50;;;;;;5089909;28;20104;-72
2023/03/18 00:19:01;;;;;;;13.02;7.65;;;6.40;94.50;;;;;;5089874;28;20111;-72
2023/03/18 00:21:28;;;;;;;15.32;7.40;;;6.30;94.60;;;;;;5094556;28;20043;-72
2023/03/18 00:23:55;;;;;;;13.25;7.68;;;6.30;94.50;;;;;;5091557;28;20032;-72
2023/03/18 00:26:25;;;;;;;15.15;8.13;;;6.30;94.60;;;;;;5096393;28;20028;-72
2023/03/18 00:28:53;;;;;;;13.18;7.60;;;6.10;94.90;;;;;;5088579;28;20031;-72
2023/03/18 00:31:19;;;;;;;12.43;7.10;;;6.10;95.20;;;;;;5073156;28;20534;-72
2023/03/18 00:33:45;;;;;;;15.27;7.80;;;6.20;94.60;;;;;;5098229;28;20027;-72
2023/03/18 00:36:12;;;;;;;14.48;7.32;;;6.20;94.50;;;;;;5096411;28;20592;-72
2023/03/18 00:38:40;;;;;;;14.90;7.15;;;6.00;94.70;;;;;;5095191;28;20028;-72
2023/03/18 00:41:14;;;;;;;14.88;7.93;;;6.00;94.90;;;;;;5093245;28;20031;-72
2023/03/18 00:43:45;;;;;;;15.32;8.13;;;6.10;94.70;;;;;;5089733;28;20086;-72
2023/03/18 00:46:16;;;;;;;14.25;8.43;;;6.10;94.70;;;;;;5095231;28;20031;-72
2023/03/18 00:48:43;;;;;;;13.98;7.32;;;6.10;94.70;;;;;;5099461;28;20040;-72
2023/03/18 00:51:12;;;;;;;13.10;7.82;;;6.10;94.80;;;;;;5091918;28;20097;-72
2023/03/18 00:53:40;;;;;;;17.92;6.88;;;6.10;94.70;;;;;;5087587;28;20122;-72
2023/03/18 00:56:07;;;;;;;15.93;8.48;;;6.10;94.70;;;;;;5097785;28;20471;-72
2023/03/18 00:58:33;;;;;;;11.93;6.80;;;6.10;94.70;;;;;;5100517;28;20133;-72
2023/03/18 01:01:00;;;;;;;15.38;7.82;;;6.10;94.70;;;;;;5094997;28;20073;-72
2023/03/18 01:03:25;;;;;;;13.13;7.70;;;6.20;94.60;;;;;;5089289;28;20028;-72
2023/03/18 01:05:52;;;;;;;13.40;7.93;;;6.20;94.70;;;;;;5090380;28;20501;-72
2023/03/18 01:08:20;;;;;;;11.82;6.68;;;6.00;94.80;;;;;;5100376;28;20024;-72
2023/03/18 01:10:47;;;;;;;15.55;8.30;;;6.00;94.90;;;;;;5095705;28;20486;-72
2023/03/18 01:13:13;;;;;;;15.70;7.88;;;6.10;94.90;;;;;;5098383;28;20032;-72
2023/03/18 01:15:39;;;;;;;16.98;8.52;;;5.90;94.90;;;;;;5097078;28;20106;-72
2023/03/18 01:18:05;;;;;;;16.58;7.78;;;6.00;94.90;;;;;;5098323;28;20036;-72
2023/03/18 01:20:30;;;;;;;12.30;6.75;;;6.00;94.90;;;;;;5106722;28;20386;-73
2023/03/18 01:22:57;;;;;;;15.68;8.10;;;5.90;94.90;;;;;;5105856;28;20031;-72
2023/03/18 01:25:23;;;;;;;12.60;8.02;;;5.90;94.90;;;;;;5089414;28;20047;-72
2023/03/18 01:27:49;;;;;;;14.70;7.90;;;5.90;95.00;;;;;;5093073;28;20016;-72
2023/03/18 01:30:14;;;;;;;15.02;8.05;;;5.90;95.10;;;;;;5104746;28;20065;-72
2023/03/18 01:32:42;;;;;;;14.75;7.97;;;5.80;95.10;;;;;;5080106;28;20055;-72
2023/03/18 01:35:09;;;;;;;13.43;7.50;;;5.80;95.20;;;;;;5095251;28;20024;-72
2023/03/18 01:37:35;;;;;;;14.57;7.15;;;5.90;95.10;;;;;;5088972;28;20048;-74
2023/03/18 01:40:01;;;;;;;14.57;7.93;;;5.90;95.00;;;;;;5098429;28;20024;-72
2023/03/18 01:42:27;;;;;;;12.45;7.05;;;5.90;95.10;;;;;;5098035;28;20070;-72
2023/03/18 01:45:18;;;;;;;14.50;8.23;;;5.80;95.10;;;;;;5088343;28;20051;-72
2023/03/18 01:47:45;;;;;;;13.98;8.27;;;5.80;95.20;;;;;;5097596;28;20043;-73
2023/03/18 01:50:14;;;;;;;14.40;7.78;;;5.90;95.10;;;;;;5096569;28;20049;-71
2023/03/18 01:52:41;;;;;;;15.02;8.63;;;5.80;95.10;;;;;;5080277;28;20024;-71
2023/03/18 01:55:11;;;;;;;13.45;7.78;;;5.80;95.20;;;;;;5095952;28;20031;-73
2023/03/18 01:57:37;;;;;;;13.35;7.07;;;5.70;95.30;;;;;;5090050;28;20046;-74
2023/03/18 02:00:04;;;;;;;12.60;7.80;;;5.60;95.60;;;;;;5094230;28;20077;-73
2023/03/18 02:02:32;;;;;;;14.27;7.63;;;5.60;95.60;;;;;;5094646;28;20049;-74
2023/03/18 02:05:03;;;;;;;14.57;8.30;;;5.60;95.50;;;;;;5090668;28;21367;-74
2023/03/18 02:07:32;;;;;;;11.93;7.50;;;5.60;95.60;;;;;;5091721;28;20023;-74
2023/03/18 02:10:02;;;;;;;16.25;8.45;;;5.50;95.60;;;;;;5090753;28;20024;-73
2023/03/18 02:12:32;;;;;;;15.20;9.15;;;5.60;95.50;;;;;;5099124;28;20484;-74
2023/03/18 02:15:00;;;;;;;13.60;7.28;;;5.60;95.60;;;;;;5095528;28;20450;-74
2023/03/18 02:17:30;;;;;;;20.13;8.88;;;5.50;95.70;;;;;;5099135;28;20043;-74
2023/03/18 02:20:20;;;;;;;15.00;8.63;;;5.50;95.90;;;;;;5095128;28;20035;-74
2023/03/18 02:22:53;;;;;;;12.15;7.72;;;5.50;95.80;;;;;;5100561;28;20031;-72
2023/03/18 02:25:36;;;;;;;14.20;8.00;;;5.40;95.90;;;;;;5095340;28;20028;-74
2023/03/18 02:28:06;;;;;;;16.17;8.35;;;5.30;96.30;;;;;;5096642;28;20046;-72
2023/03/18 02:30:53;;;;;;;16.10;8.27;;;5.40;96.10;;;;;;5096196;28;20020;-74
2023/03/18 02:33:23;;;;;;;10.85;7.13;;;5.40;96.00;;;;;;5087994;28;20508;-74
2023/03/18 02:35:55;;;;;;;18.13;7.80;;;5.40;96.10;;;;;;5096565;28;20093;-73
2023/03/18 02:38:21;;;;;;;13.63;7.53;;;5.30;96.20;;;;;;5094751;28;20024;-73
2023/03/18 02:40:47;;;;;;;15.85;8.48;;;5.30;96.20;;;;;;5088657;28;20025;-73
2023/03/18 02:43:19;;;;;;;15.30;8.73;;;5.30;96.20;;;;;;5095696;28;20107;-73
2023/03/18 02:45:56;;;;;;;13.93;8.10;;;5.30;96.20;;;;;;5093434;28;20028;-73
2023/03/18 02:48:26;;;;;;;15.57;7.55;;;5.20;96.40;;;;;;5089445;28;20035;-73
2023/03/18 02:50:54;;;;;;;15.98;8.38;;;5.40;96.20;;;;;;5096173;28;20035;-73
2023/03/18 02:53:19;;;;;;;16.10;8.55;;;5.60;96.00;;;;;;5093920;28;20382;-73
2023/03/18 02:55:45;;;;;;;13.73;8.30;;;5.70;95.80;;;;;;5096981;28;20039;-74
2023/03/18 02:58:11;;;;;;;17.05;8.57;;;5.70;95.60;;;;;;5096613;28;20028;-73
2023/03/18 03:00:37;;;;;;;13.30;7.95;;;5.80;95.60;;;;;;5099992;28;20023;-73
2023/03/18 03:03:04;;;;;;;15.98;8.38;;;5.80;95.50;;;;;;5096056;28;20040;-73
2023/03/18 03:05:30;;;;;;;14.90;9.07;;;5.90;95.30;;;;;;5097965;28;20370;-72
2023/03/18 03:07:55;;;;;;;14.07;8.75;;;6.00;95.40;;;;;;5092660;28;20031;-73
2023/03/18 03:10:21;;;;;;;15.70;9.43;;;5.80;95.70;;;;;;5098245;28;20076;-73
2023/03/18 03:12:47;;;;;;;14.15;8.45;;;5.70;95.70;;;;;;5100108;28;20453;-73
2023/03/18 03:15:13;;;;;;;15.63;8.38;;;5.80;95.70;;;;;;5096321;28;20374;-73
2023/03/18 03:17:40;;;;;;;17.42;7.88;;;5.80;95.80;;;;;;5089222;28;20039;-73
2023/03/18 03:20:07;;;;;;;17.38;9.77;;;5.70;95.70;;;;;;5087713;28;20031;-74
2023/03/18 03:22:34;;;;;;;15.30;8.07;;;5.60;96.00;;;;;;5096247;28;20077;-73
2023/03/18 03:25:00;;;;;;;16.25;8.15;;;5.60;96.20;;;;;;5100486;28;20416;-73
2023/03/18 03:27:27;;;;;;;14.10;7.93;;;5.70;96.10;;;;;;5095056;28;20073;-73
2023/03/18 03:29:54;;;;;;;14.48;8.23;;;5.60;96.10;;;;;;5099802;28;20031;-73
2023/03/18 03:32:20;;;;;;;14.75;8.07;;;5.60;96.30;;;;;;5089167;28;20039;-73
2023/03/18 03:34:46;;;;;;;14.25;8.13;;;5.80;95.90;;;;;;5090553;28;20035;-71
2023/03/18 03:37:12;;;;;;;15.77;9.02;;;5.80;95.90;;;;;;5092114;28;20524;-73
2023/03/18 03:39:38;;;;;;;20.50;9.07;;;5.70;96.10;;;;;;5092438;28;20024;-72
2023/03/18 03:42:04;;;;;;;17.70;8.82;;;5.60;96.30;;;;;;5091098;28;20043;-73
2023/03/18 03:44:29;;;;;;;13.90;7.80;;;5.40;96.60;;;;;;5100189;28;20085;-73
2023/03/18 03:46:55;;;;;;;12.57;7.65;;;5.40;96.50;;;;;;5097785;28;20476;-73
2023/03/18 03:49:21;;;;;;;15.85;8.35;;;5.30;96.70;;;;;;5103356;28;20397;-73
2023/03/18 03:51:47;;;;;;;14.10;7.90;;;5.40;96.70;;;;;;5103399;28;20020;-73
2023/03/18 03:54:14;;;;;;;16.50;8.43;;;5.40;96.60;;;;;;5103940;28;20470;-73
2023/03/18 03:56:41;;;;;;;15.70;8.88;;;5.30;96.80;;;;;;5092506;28;20046;-73
2023/03/18 03:59:07;;;;;;;13.90;8.60;;;5.40;96.80;;;;;;5104508;28;20031;-73
2023/03/18 04:01:33;;;;;;;19.10;9.70;;;5.20;97.10;;;;;;5100042;28;20110;-73
2023/03/18 04:04:01;;;;;;;13.52;8.55;;;5.30;97.20;;;;;;5102104;28;20046;-73
2023/03/18 04:06:27;;;;;;;15.10;8.73;;;5.50;96.80;;;;;;5096682;28;20114;-74
2023/03/18 04:08:53;;;;;;;16.70;9.23;;;5.40;97.00;;;;;;5095177;28;20181;-73
2023/03/18 04:11:20;;;;;;;14.15;8.43;;;5.30;97.20;;;;;;5094564;28;20058;-74
2023/03/18 04:13:45;;;;;;;17.70;9.18;;;5.40;97.00;;;;;;5092232;28;20031;-73
2023/03/18 04:16:11;;;;;;;15.50;9.02;;;5.50;96.90;;;;;;5105988;28;20035;-73
2023/03/18 04:18:37;;;;;;;18.90;9.20;;;5.50;96.80;;;;;;5096235;28;20361;-74
2023/03/18 04:21:03;;;;;;;17.52;9.38;;;5.50;97.00;;;;;;5089679;28;20031;-73
2023/03/18 04:23:29;;;;;;;16.60;8.95;;;5.50;96.80;;;;;;5091795;28;20527;-74
2023/03/18 04:25:54;;;;;;;17.02;8.45;;;5.60;96.60;;;;;;5096912;28;20031;-74
2023/03/18 04:28:20;;;;;;;17.92;8.93;;;5.80;96.40;;;;;;5091702;28;20028;-73
2023/03/18 04:30:47;;;;;;;16.30;8.85;;;5.80;96.30;;;;;;5093008;28;20043;-73
2023/03/18 04:33:13;;;;;;;17.13;9.20;;;5.70;96.40;;;;;;5093030;28;20085;-71
2023/03/18 04:35:41;;;;;;;15.63;7.78;;;5.70;96.40;;;;;;5085357;28;20024;-74
2023/03/18 04:38:07;;;;;;;14.18;8.15;;;5.60;96.60;;;;;;5084130;28;20088;-74
2023/03/18 04:40:32;;;;;;;13.90;9.07;;;5.70;96.60;;;;;;5091844;28;20027;-74
2023/03/18 04:42:58;;;;;;;15.07;9.10;;;5.80;96.30;;;;;;5092525;28;20028;-74
2023/03/18 04:45:24;;;;;;;19.98;9.43;;;5.90;96.40;;;;;;5096488;28;20591;-74
2023/03/18 04:47:50;;;;;;;17.23;8.65;;;5.90;96.50;;;;;;5097688;28;20600;-74
2023/03/18 04:50:16;;;;;;;20.52;9.60;;;5.80;96.60;;;;;;5098684;28;20629;-74
2023/03/18 04:52:43;;;;;;;17.92;10.60;;;5.80;96.70;;;;;;5092463;28;20027;-74
2023/03/18 04:55:10;;;;;;;18.83;8.98;;;5.90;96.80;;;;;;5087481;28;20031;-74
2023/03/18 04:57:37;;;;;;;18.80;9.20;;;5.90;96.80;;;;;;5090173;28;20031;-73
2023/03/18 05:00:10;;;;;;;13.35;8.98;;;5.90;97.10;;;;;;5097868;28;20036;-74
2023/03/18 05:02:36;;;;;;;16.52;8.88;;;5.70;96.80;;;;;;5087574;28;20085;-74
2023/03/18 05:05:02;;;;;;;14.77;8.73;;;5.60;96.80;;;;;;5089130;28;20085;-74
2023/03/18 05:07:28;;;;;;;18.02;9.98;;;5.60;97.00;;;;;;5094680;28;20546;-74
2023/03/18 05:09:54;;;;;;;20.65;10.98;;;5.60;97.20;;;;;;5095420;28;20085;-74
2023/03/18 05:12:20;;;;;;;19.52;10.07;;;5.40;97.30;;;;;;5091541;28;20584;-74
2023/03/18 05:14:45;;;;;;;15.43;8.68;;;5.50;97.30;;;;;;5094569;28;20043;-74
2023/03/18 05:17:15;;;;;;;16.40;9.38;;;5.50;97.00;;;;;;5091411;28;20035;-73
2023/03/18 05:19:43;;;;;;;18.45;9.10;;;5.70;96.90;;;;;;5085269;28;20039;-73
2023/03/18 05:22:10;;;;;;;15.38;9.65;;;5.60;96.80;;;;;;5105382;28;20384;-74
2023/03/18 05:24:36;;;;;;;18.77;9.48;;;5.70;96.90;;;;;;5099459;28;20075;-73
2023/03/18 05:27:02;;;;;;;21.45;9.85;;;5.70;97.00;;;;;;5099692;28;20107;-74
2023/03/18 05:29:28;;;;;;;14.13;8.80;;;5.70;96.80;;;;;;5091894;28;20120;-73
2023/03/18 05:31:54;;;;;;;16.13;9.57;;;5.70;96.80;;;;;;5096320;28;20039;-74
2023/03/18 05:34:19;;;;;;;18.02;9.50;;;5.60;97.10;;;;;;5092469;28;20533;-73
2023/03/18 05:36:45;;;;;;;15.75;9.30;;;5.50;97.40;;;;;;5094665;28;20062;-73
2023/03/18 05:39:11;;;;;;;17.10;8.48;;;5.60;97.20;;;;;;5088545;28;20059;-73
2023/03/18 05:41:37;;;;;;;17.05;9.65;;;5.50;97.40;;;;;;5089632;28;20063;-73
2023/03/18 05:44:03;;;;;;;16.67;9.90;;;5.60;97.50;;;;;;5095935;28;20027;-73
2023/03/18 05:46:28;;;;;;;14.73;8.05;;;5.60;97.40;;;;;;5098566;28;20558;-73
2023/03/18 05:48:54;;;;;;;17.85;8.75;;;5.40;97.60;;;;;;5098277;28;20046;-74
2023/03/18 05:51:20;;;;;;;19.05;9.68;;;5.40;98.00;;;;;;5090043;28;20024;-74
2023/03/18 05:53:46;;;;;;;15.63;8.73;;;5.30;97.80;;;;;;5084430;28;20342;-74
2023/03/18 05:56:13;;;;;;;15.82;8.48;;;5.30;97.80;;;;;;5091315;28;20042;-74
2023/03/18 05:58:39;;;;;;;16.33;8.88;;;5.40;97.90;;;;;;5084203;28;20089;-73
2023/03/18 06:01:06;;;;;;;14.27;8.43;;;5.30;98.00;;;;;;5096994;28;20473;-74
2023/03/18 06:03:33;;;;;;;15.27;7.82;;;5.40;98.00;;;;;;5087948;28;20101;-74
2023/03/18 06:06:00;;;;;;;15.13;8.27;;;5.20;98.30;;;;;;5098955;28;20095;-73
2023/03/18 06:08:27;;;;;;;15.02;8.57;;;5.40;98.00;;;;;;5105015;28;20047;-74
2023/03/18 06:10:53;;;;;;;14.65;8.68;;;5.50;97.80;;;;;;5091905;28;20035;-74
2023/03/18 06:13:19;;;;;;;14.25;8.85;;;5.50;97.70;;;;;;5084834;28;20039;-74
2023/03/18 06:15:45;;;;;;;16.13;8.80;;;5.60;97.80;;;;;;5095014;28;20024;-74
2023/03/18 06:18:12;;;;;;;17.55;9.30;;;5.70;99.00;;;;;;5092877;28;20097;-73
2023/03/18 06:20:38;;;;;;;13.88;8.23;;;5.60;98.80;;;;;;5087691;28;20028;-74
2023/03/18 06:23:04;;;;;;;15.18;8.70;;;5.60;99.00;;;;;;5099715;28;20373;-73
2023/03/18 06:25:30;;;;;;;15.00;7.88;;;5.40;99.00;;;;;;5091133;28;20384;-74
2023/03/18 06:27:56;;;;;;;16.02;8.55;;;5.50;98.60;;;;;;5091299;28;20020;-73
2023/03/18 06:30:22;;;;;;;18.23;8.65;;;5.60;98.40;;;;;;5088540;28;20038;-74
2023/03/18 06:32:48;;;;;;;14.73;8.75;;;5.70;98.40;;;;;;5095195;28;20030;-73
2023/03/18 06:35:15;;;;;;;15.68;8.63;;;5.80;98.00;;;;;;5095411;28;20019;-73
2023/03/18 06:37:41;;;;;;;14.77;7.78;;;5.80;98.00;;;;;;5096101;28;20048;-73
2023/03/18 06:40:09;;;;;;;13.38;8.35;;;5.80;98.00;;;;;;5094930;28;20034;-74
2023/03/18 06:42:35;;;;;;;12.27;7.65;;;5.80;98.10;;;;;;5089928;28;20023;-74
2023/03/18 06:45:01;;;;;;;14.38;8.65;;;5.90;98.40;;;;;;5090709;28;20051;-74
2023/03/18 06:47:27;;;;;;;12.73;7.93;;;5.90;98.30;;;;;;5094403;28;20074;-73
2023/03/18 06:49:53;;;;;;;14.50;8.07;;;5.90;98.60;;;;;;5093661;28;20384;-73
2023/03/18 06:52:19;;;;;;;12.85;7.50;;;5.90;98.70;;;;;;5093028;28;20035;-73
2023/03/18 06:54:44;;;;;;;16.35;8.13;;;5.90;98.60;;;;;;5094379;28;20028;-74
2023/03/18 06:57:10;;;;;;;14.00;8.00;;;5.90;98.90;;;;;;5090616;28;20127;-74
2023/03/18 06:59:36;;;;;;;16.70;9.05;;;5.90;99.30;;;;;;5092829;28;20035;-74
2023/03/18 07:02:04;;;;;;;15.60;9.25;;;6.00;98.60;;;;;;5091691;28;20032;-73
2023/03/18 07:04:30;;;;;;;13.35;7.35;;;5.90;98.40;;;;;;5093951;28;20028;-74
2023/03/18 07:06:56;;;;;;;21.20;9.30;;;5.90;98.20;;;;;;5096711;28;20162;-74
2023/03/18 07:09:23;;;;;;;16.42;8.48;;;5.90;98.50;;;;;;5096379;28;20061;-74
2023/03/18 07:11:49;;;;;;;13.77;8.13;;;6.00;98.50;;;;;;5095588;28;20023;-73
2023/03/18 07:14:15;;;;;;;16.00;8.23;;;6.10;98.10;;;;;;5099912;28;20107;-74
2023/03/18 07:16:41;;;;;;;16.73;8.77;;;6.20;98.40;;;;;;5099941;28;20044;-74
2023/03/18 07:19:06;;;;;;;19.15;8.05;;;6.30;98.00;;;;;;5093275;28;20480;-74
2023/03/18 07:21:32;;;;;;;14.98;8.18;;;6.20;98.30;;;;;;5096435;28;20085;-74
2023/03/18 07:23:58;;;;;;;15.82;8.50;;;6.30;98.30;;;;;;5100140;28;20020;-73
2023/03/18 07:26:25;;;;;;;16.65;8.63;;;6.30;98.70;;;;;;5096497;28;20890;-73
2023/03/18 07:28:51;;;;;;;17.02;10.05;;;6.40;98.40;;;;;;5099790;28;20410;-71
2023/03/18 07:31:17;;;;;;;16.67;9.00;;;6.60;98.80;;;;;;5094546;28;20114;-74
2023/03/18 07:33:42;;;;;;;16.83;8.88;;;6.70;98.70;;;;;;5096540;28;20068;-74
2023/03/18 07:36:08;;;;;;;15.93;8.82;;;6.80;98.00;;;;;;5099260;28;20961;-73
2023/03/18 07:38:34;;;;;;;15.32;8.13;;;6.80;97.70;;;;;;5098185;28;20055;-74
2023/03/18 07:41:00;;;;;;;14.20;9.50;;;6.90;98.40;;;;;;5089768;28;20028;-73
2023/03/18 07:43:26;;;;;;;13.93;7.93;;;6.80;98.50;;;;;;5102705;28;20032;-73
2023/03/18 07:45:51;;;;;;;18.35;9.25;;;6.90;97.90;;;;;;5094422;28;20020;-74
2023/03/18 07:48:18;;;;;;;15.43;8.55;;;7.00;97.50;;;;;;5097693;28;20036;-74
2023/03/18 07:50:44;;;;;;;16.83;8.57;;;6.90;98.70;;;;;;5093198;28;20118;-74
2023/03/18 07:53:11;;;;;;;15.45;8.52;;;6.90;97.70;;;;;;5097677;28;20032;-73
2023/03/18 07:55:37;;;;;;;16.52;9.32;;;7.00;98.20;;;;;;5095968;28;20028;-74
2023/03/18 07:58:03;;;;;;;14.32;9.25;;;7.10;98.30;;;;;;5095866;28;20434;-73
2023/03/18 08:00:29;;;;;;;16.73;8.05;;;7.10;98.00;;;;;;5094547;28;20043;-74
2023/03/18 08:02:55;;;;;;;16.75;9.90;;;7.20;97.60;;;;;;5100135;28;20032;-73
2023/03/18 08:05:21;;;;;;;12.88;7.25;;;7.30;96.90;;;;;;5098910;28;20042;-75
2023/03/18 08:07:47;;;;;;;14.43;8.45;;;7.30;96.80;;;;;;5092689;28;20541;-74
2023/03/18 08:10:14;;;;;;;16.52;8.48;;;7.30;96.80;;;;;;5104192;28;20110;-74
2023/03/18 08:12:41;;;;;;;15.70;9.13;;;7.30;97.00;;;;;;5099485;28;20104;-75
2023/03/18 08:15:08;;;;;;;13.95;8.75;;;7.40;97.00;;;;;;5096477;28;20377;-75
2023/03/18 08:17:33;;;;;;;27.60;8.35;;;7.40;97.10;;;;;;5095213;28;20040;-73
2023/03/18 08:19:59;;;;;;;17.13;8.60;;;7.40;97.00;;;;;;5090611;28;20076;-73
2023/03/18 08:22:25;;;;;;;14.45;9.07;;;7.50;96.90;;;;;;5089879;28;20058;-73
2023/03/18 08:24:51;;;;;;;16.58;8.55;;;7.50;96.40;;;;;;5092785;28;20054;-73
2023/03/18 08:27:17;;;;;;;16.20;8.55;;;7.60;96.60;;;;;;5100931;28;20040;-73
2023/03/18 08:29:43;;;;;;;13.70;8.88;;;7.60;96.20;;;;;;5096962;28;20032;-73
2023/03/18 08:32:09;;;;;;;13.38;7.90;;;7.60;96.40;;;;;;5077961;28;20024;-75
2023/03/18 08:34:36;;;;;;;17.08;9.57;;;7.70;96.50;;;;;;5097850;28;20090;-75
2023/03/18 08:37:02;;;;;;;16.00;8.77;;;7.70;97.10;;;;;;5099208;28;20040;-74
2023/03/18 08:39:27;;;;;;;15.70;8.88;;;7.70;96.20;;;;;;5093993;28;20020;-76
2023/03/18 08:41:53;;;;;;;14.95;8.00;;;7.80;96.50;;;;;;5100633;28;20027;-73
2023/03/18 08:44:19;;;;;;;14.55;8.43;;;7.80;96.50;;;;;;5097241;28;20027;-72
2023/03/18 08:46:44;;;;;;;14.90;8.10;;;7.90;96.40;;;;;;5091912;28;20028;-73
2023/03/18 08:49:12;;;;;;;17.63;10.13;;;7.80;96.40;;;;;;5091830;28;20101;-75
2023/03/18 08:51:39;;;;;;;16.88;8.45;;;7.90;96.40;;;;;;5094238;28;20034;-75
2023/03/18 08:54:05;;;;;;;13.52;8.70;;;8.10;96.50;;;;;;5091836;28;20020;-74
2023/03/18 08:56:30;;;;;;;15.13;8.05;;;8.30;96.30;;;;;;5093345;28;20042;-75
2023/03/18 08:58:56;;;;;;;17.85;8.50;;;8.40;96.30;;;;;;5094212;28;20419;-72
2023/03/18 09:01:22;;;;;;;17.52;8.63;;;8.70;96.10;;;;;;5097736;28;20076;-70
2023/03/18 09:03:49;;;;;;;15.82;9.38;;;8.70;95.10;;;;;;5096559;28;20106;-71
2023/03/18 09:06:15;;;;;;;15.25;9.05;;;8.80;95.30;;;;;;5096309;28;20623;-72
2023/03/18 09:08:41;;;;;;;12.68;7.63;;;9.00;95.60;;;;;;5099697;28;20055;-73
2023/03/18 09:11:08;;;;;;;17.88;9.18;;;9.10;94.80;;;;;;5098630;28;20471;-73
2023/03/18 09:13:34;;;;;;;15.43;9.07;;;9.20;94.90;;;;;;5097893;28;21525;-73
2023/03/18 09:15:59;;;;;;;18.27;10.63;;;9.20;94.40;;;;;;5086758;28;20549;-73
2023/03/18 09:18:25;;;;;;;33.28;17.67;;;9.20;94.50;;;;;;5094082;28;20031;-72
2023/03/18 09:20:51;;;;;;;15.32;9.05;;;9.30;94.60;;;;;;5094726;28;20024;-76
2023/03/18 09:23:17;;;;;;;19.35;9.23;;;9.40;94.80;;;;;;5093339;28;20479;-75
2023/03/18 09:25:45;;;;;;;16.33;8.52;;;9.30;94.40;;;;;;5104573;28;20028;-75
2023/03/18 09:28:13;;;;;;;16.38;9.10;;;9.40;94.20;;;;;;5099334;28;20023;-75
2023/03/18 09:30:39;;;;;;;16.83;9.52;;;9.50;94.10;;;;;;5092160;28;20436;-75
2023/03/18 09:33:05;;;;;;;16.02;9.63;;;9.40;94.20;;;;;;5098421;28;20065;-75
2023/03/18 09:35:32;;;;;;;15.02;8.35;;;9.70;94.30;;;;;;5099447;28;20390;-76
2023/03/18 09:37:58;;;;;;;19.60;8.77;;;10.00;93.80;;;;;;5096984;28;20063;-75
2023/03/18 09:40:36;;;;;;;18.73;9.13;;;10.00;93.70;;;;;;5099390;28;20036;-75
2023/03/18 09:43:24;;;;;;;13.38;8.07;;;10.00;93.50;;;;;;5094621;28;20035;-75
2023/03/18 09:46:09;;;;;;;19.42;10.35;;;10.20;93.40;;;;;;5100143;28;20429;-75
2023/03/18 09:48:56;;;;;;;14.85;8.95;;;10.20;93.40;;;;;;5100142;28;20032;-75
2023/03/18 09:51:50;;;;;;;18.13;10.35;;;10.50;93.70;;;;;;5099213;28;20526;-76
2023/03/18 09:54:28;;;;;;;16.67;9.05;;;10.70;93.60;;;;;;5102764;28;20039;-76
2023/03/18 09:56:54;;;;;;;16.42;9.23;;;10.60;93.00;;;;;;5097746;28;20067;-75
2023/03/18 09:59:23;;;;;;;16.48;8.95;;;10.60;93.10;;;;;;5103101;28;20040;-76
2023/03/18 10:01:53;;;;;;;12.57;8.18;;;10.70;93.10;;;;;;5104353;28;20084;-76
2023/03/18 10:04:26;;;;;;;18.00;9.45;;;10.70;93.50;;;;;;5096358;28;20032;-77
2023/03/18 10:07:07;;;;;;;17.27;9.55;;;10.60;92.80;;;;;;5093520;28;20061;-77
2023/03/18 10:09:41;;;;;;;15.20;8.10;;;10.70;93.10;;;;;;5106145;28;20036;-77
2023/03/18 10:12:22;;;;;;;18.50;10.00;;;10.60;92.30;;;;;;5105334;28;20058;-76
2023/03/18 10:14:51;;;;;;;17.45;9.60;;;10.70;92.50;;;;;;5103392;28;20038;-76
2023/03/18 10:17:38;;;;;;;16.23;9.23;;;10.90;93.10;;;;;;5103980;28;20094;-78
2023/03/18 10:20:27;;;;;;;14.10;8.88;;;11.30;92.30;;;;;;5106251;28;20035;-76
2023/03/18 10:23:04;;;;;;;13.98;8.25;;;11.50;92.00;;;;;;5104531;28;20049;-76
2023/03/18 10:25:51;;;;;;;13.63;8.40;;;11.20;91.20;;;;;;5090630;28;20039;-76
2023/03/18 10:28:46;;;;;;;26.63;10.30;;;11.20;92.20;;;;;;5101985;28;20524;-76
2023/03/18 10:31:25;;;;;;;15.80;9.18;;;11.50;92.10;;;;;;5102761;28;20118;-76
2023/03/18 10:33:57;;;;;;;15.43;9.38;;;11.60;92.00;;;;;;5091401;28;20032;-76
2023/03/18 10:36:34;;;;;;;15.57;8.75;;;11.50;91.20;;;;;;5090022;28;20144;-74
2023/03/18 10:39:01;;;;;;;17.23;9.85;;;11.40;91.60;;;;;;5098598;28;20420;-75
2023/03/18 10:41:36;;;;;;;18.40;10.15;;;11.60;90.90;;;;;;5097049;28;20027;-76
2023/03/18 10:44:31;;;;;;;17.77;9.57;;;11.80;91.00;;;;;;5108463;28;20034;-76
2023/03/18 10:47:12;;;;;;;18.48;10.02;;;11.80;90.00;;;;;;5096205;28;20540;-75
2023/03/18 10:49:56;;;;;;;16.45;10.10;;;12.00;91.10;;;;;;5097979;28;20081;-74
2023/03/18 10:52:31;;;;;;;16.83;10.23;;;12.20;89.60;;;;;;5101062;28;20097;-75
2023/03/18 10:54:57;;;;;;;20.60;10.20;;;12.20;89.40;;;;;;5107372;28;20504;-75
2023/03/18 10:57:23;;;;;;;19.67;10.80;;;12.10;90.10;;;;;;5111038;28;20107;-75
2023/03/18 10:59:50;;;;;;;25.38;12.13;;;12.30;90.70;;;;;;5108979;28;20059;-75
2023/03/18 11:02:25;;;;;;;19.65;10.85;;;12.40;89.80;;;;;;5109636;28;20032;-75
2023/03/18 11:04:53;;;;;;;;;;;12.50;89.90;;;;;;5112292;28;20046;-76
2023/03/18 11:07:24;;;;;;;17.27;10.10;;;12.60;88.30;;;;;;5110591;28;19908;-75
2023/03/18 11:09:50;;;;;;;14.77;9.70;;;12.70;90.20;;;;;;5112198;28;20030;-76
2023/03/18 11:12:21;;;;;;;17.20;10.15;;;12.90;90.10;;;;;;5109496;28;20042;-76
2023/03/18 11:14:49;;;;;;;17.63;9.68;;;13.20;89.90;;;;;;5110949;28;20104;-77
2023/03/18 11:17:28;;;;;;;18.02;11.20;;;13.50;92.30;;;;;;5110902;28;20047;-76
2023/03/18 11:20:10;;;;;;;21.25;10.27;;;13.80;88.50;;;;;;5109439;28;20031;-76
2023/03/18 11:22:42;;;;;;;20.75;11.23;;;13.70;88.50;;;;;;5104179;28;20030;-76
2023/03/18 11:25:21;;;;;;;25.08;12.85;;;13.70;86.70;;;;;;5111517;28;20027;-76
2023/03/18 11:27:51;;;;;;;17.50;11.43;;;13.50;86.80;;;;;;5111296;28;20036;-77
2023/03/18 11:30:21;;;;;;;21.00;12.48;;;13.50;88.00;;;;;;5110894;28;20042;-75
2023/03/18 11:32:57;;;;;;;17.88;11.05;;;13.60;87.00;;;;;;5111123;28;20027;-76
2023/03/18 11:35:44;;;;;;;17.55;10.68;;;13.70;87.00;;;;;;5111456;28;20059;-76
2023/03/18 11:38:32;;;;;;;22.95;11.98;;;13.80;87.90;;;;;;5110176;28;20068;-76
2023/03/18 11:41:14;;;;;;;19.13;12.07;;;13.70;88.30;;;;;;5090218;28;20081;-76
2023/03/18 11:43:58;;;;;;;20.80;12.80;;;14.10;86.00;;;;;;5110234;28;20055;-76
2023/03/18 11:46:28;;;;;;;21.08;12.15;;;14.10;85.10;;;;;;5111547;28;20110;-76
2023/03/18 11:48:55;;;;;;;23.90;11.32;;;14.00;86.10;;;;;;5093326;28;20056;-75
2023/03/18 11:52:00;;;;;;;19.83;11.82;;;13.90;87.20;;;;;;5093574;28;20634;-75
2023/03/18 11:54:44;;;;;;;20.65;11.38;;;14.20;86.50;;;;;;5109042;28;20543;-74
2023/03/18 11:57:21;;;;;;;21.92;12.18;;;14.00;85.70;;;;;;5091664;28;20040;-75
2023/03/18 12:00:02;;;;;;;23.77;12.15;;;14.00;85.30;;;;;;5109984;28;20028;-74
2023/03/18 12:02:55;;;;;;;19.48;12.00;;;14.20;85.50;;;;;;5101488;28;20409;-74
2023/03/18 12:05:35;;;;;;;21.88;12.23;;;14.00;83.90;;;;;;5098418;28;20031;-73
2023/03/18 12:08:01;;;;;;;22.38;12.95;;;14.00;82.90;;;;;;5093177;28;20387;-73
2023/03/18 12:10:45;;;;;;;20.58;12.35;;;14.00;83.30;;;;;;5109918;28;20024;-74
2023/03/18 12:13:28;;;;;;;19.75;11.80;;;14.20;83.30;;;;;;5091000;28;20111;-73
2023/03/18 12:16:26;;;;;;;22.65;12.98;;;14.20;83.10;;;;;;5090720;28;20081;-73
2023/03/18 12:19:11;;;;;;;19.38;11.43;;;14.20;81.50;;;;;;5095965;28;20071;-74
2023/03/18 12:21:51;;;;;;;20.90;11.68;;;14.30;80.50;;;;;;5111497;28;20121;-75
2023/03/18 12:24:29;;;;;;;21.73;12.32;;;14.80;82.20;;;;;;5108673;28;20032;-73
2023/03/18 12:27:30;;;;;;;19.02;11.55;;;15.10;81.40;;;;;;5111221;28;20394;-73
2023/03/18 12:30:05;;;;;;;22.92;11.25;;;15.10;79.10;;;;;;5111365;28;20026;-74
2023/03/18 12:33:08;;;;;;;17.60;10.38;;;15.20;80.00;;;;;;5111079;28;20426;-73
2023/03/18 12:35:45;;;;;;;18.35;10.55;;;15.50;79.10;;;;;;5007754;28;20033;-73
2023/03/18 12:38:12;;;;;;;15.93;10.02;;;16.00;79.20;;;;;;5097127;28;20493;-74
2023/03/18 12:40:53;;;;;;;18.60;10.25;;;16.50;78.40;;;;;;5108141;28;20031;-74
2023/03/18 12:43:22;;;;;;;16.98;11.48;;;16.70;79.00;;;;;;5107058;28;20485;-74
2023/03/18 12:45:57;;;;;;;18.92;12.07;;;16.70;76.70;;;;;;5109245;28;20024;-74
2023/03/18 12:48:35;;;;;;;22.38;14.63;;;16.70;77.10;;;;;;5107867;28;20591;-74
2023/03/18 12:51:17;;;;;;;27.85;20.17;;;16.50;76.60;;;;;;5107965;28;20034;-73
2023/03/18 12:53:51;;;;;;;21.30;12.00;;;16.50;76.00;;;;;;5096310;28;20062;-73
2023/03/18 12:56:24;;;;;;;;;;;16.60;76.50;;;;;;5109670;28;20389;-74